Schenectady, NY (12301)

12:00 AM EDT on August 29, 2016 (GMT -0400)
Stockade | | Change Station

Elev 249 ft 42.82 °N, 73.95 °W | Updated 4 seconds ago

Overcast
Overcast
74.7 °F
Feels Like 77 °F
N
0.0
Wind Variable Wind from WNW
Gusts 1.0 mph

Today
High -- | Low -- °F
--% Chance of Precip.
Yesterday
High -- | Low -- °F
Precip. -- in
Pressure 30.09 in
Visibility 10.0 miles
Clouds Mostly Cloudy 4800 ft
Overcast 9000 ft
Heat Index 77 °F
Dew Point 58 °F
Humidity 57%
Rainfall 0.00 in
Snow Depth Not available.
6:17 AM 7:34 PM
Waning Crescent, 11% visible
METAR KALB 290351Z 18008KT 10SM BKN048 OVC090 26/18 A3010 RMK AO2 SLP190 T02560183
Pressure 30.09 in
Visibility 10.0 miles
Clouds Mostly Cloudy 4800 ft
Overcast 9000 ft
Heat Index 77 °F
Dew Point 58 °F
Humidity 57%
Rainfall 0.00 in
Snow Depth Not available.
6:17 AM 7:34 PM
Waning Crescent, 11% visible
METAR KALB 290351Z 18008KT 10SM BKN048 OVC090 26/18 A3010 RMK AO2 SLP190 T02560183

10-Day Weather Forecast

Almanac

Astronomy

Aug. 29, 2016 Rise Set
Actual Time
Civil Twilight
Nautical Twilight
Astronomical Twilight
Moon
Length of Visible Light
Length of Day
Tomorrow will be .
, % of the Moon is Illuminated

Today's Extremes

State Highs State Lows

Community

WunderPhotos

Upload Photos

1,935,783 photos uploaded!

WunderBlog® & News

Nearby

Air Quality

  Air Quality AQ Index Pollutant
Not available.

Snow Depth

Station Depth Elevation

Earthquake Activity

City Distance Mag. Time & Date
Minimum magnitude displayed is 2.5.

Coastal Water Temperatures

Place Temperature

Stations

Nearby Weather Stations

Station Location Temp. Windchill Dew Point Humidity Wind Precip. Elev Updated Type
                   

Watches & Warnings

There are currently no watches in effect.